sensor_id;sensor_type;location;lat;lon;timestamp;temperature;humidity
29803;DHT22;16702;50.898;4.662;2023-02-28T00:00:36;4.20;99.90
29803;DHT22;16702;50.898;4.662;2023-02-28T00:03:07;4.10;99.90
29803;DHT22;16702;50.898;4.662;2023-02-28T00:05:37;4.10;99.90
29803;DHT22;16702;50.898;4.662;2023-02-28T00:08:11;4.10;99.90
29803;DHT22;16702;50.898;4.662;2023-02-28T00:10:41;4.00;99.90
29803;DHT22;16702;50.898;4.662;2023-02-28T00:13:12;4.00;99.90
29803;DHT22;16702;50.898;4.662;2023-02-28T00:15:43;4.00;99.90
29803;DHT22;16702;50.898;4.662;2023-02-28T00:18:14;4.10;99.90
29803;DHT22;16702;50.898;4.662;2023-02-28T00:20:44;4.00;99.90
29803;DHT22;16702;50.898;4.662;2023-02-28T00:23:17;4.00;99.90
29803;DHT22;16702;50.898;4.662;2023-02-28T00:25:48;3.90;99.90
29803;DHT22;16702;50.898;4.662;2023-02-28T00:28:19;3.90;99.90
29803;DHT22;16702;50.898;4.662;2023-02-28T00:30:49;3.90;99.90
29803;DHT22;16702;50.898;4.662;2023-02-28T00:33:20;3.90;99.90
29803;DHT22;16702;50.898;4.662;2023-02-28T00:35:50;4.00;99.90
29803;DHT22;16702;50.898;4.662;2023-02-28T00:38:23;3.90;99.90
29803;DHT22;16702;50.898;4.662;2023-02-28T00:40:54;3.80;99.90
29803;DHT22;16702;50.898;4.662;2023-02-28T00:43:25;3.90;99.90
29803;DHT22;16702;50.898;4.662;2023-02-28T00:45:56;3.90;99.90
29803;DHT22;16702;50.898;4.662;2023-02-28T00:48:26;3.80;99.90
29803;DHT22;16702;50.898;4.662;2023-02-28T00:50:57;3.90;99.90
29803;DHT22;16702;50.898;4.662;2023-02-28T00:53:30;3.70;99.90
29803;DHT22;16702;50.898;4.662;2023-02-28T00:56:00;3.70;99.90
29803;DHT22;16702;50.898;4.662;2023-02-28T00:58:32;3.70;99.90
29803;DHT22;16702;50.898;4.662;2023-02-28T01:01:02;3.60;99.90
29803;DHT22;16702;50.898;4.662;2023-02-28T01:03:33;3.60;99.90
29803;DHT22;16702;50.898;4.662;2023-02-28T01:06:04;3.60;99.90
29803;DHT22;16702;50.898;4.662;2023-02-28T01:08:37;3.50;99.90
29803;DHT22;16702;50.898;4.662;2023-02-28T01:11:09;3.50;99.90
29803;DHT22;16702;50.898;4.662;2023-02-28T01:13:41;3.50;99.90
29803;DHT22;16702;50.898;4.662;2023-02-28T01:16:12;3.50;99.90
29803;DHT22;16702;50.898;4.662;2023-02-28T01:18:43;3.50;99.90
29803;DHT22;16702;50.898;4.662;2023-02-28T01:21:15;3.40;99.90
29803;DHT22;16702;50.898;4.662;2023-02-28T01:23:49;3.50;99.90
29803;DHT22;16702;50.898;4.662;2023-02-28T01:26:21;3.50;99.90
29803;DHT22;16702;50.898;4.662;2023-02-28T01:28:53;3.40;99.90
29803;DHT22;16702;50.898;4.662;2023-02-28T01:31:25;3.30;99.90
29803;DHT22;16702;50.898;4.662;2023-02-28T01:33:56;3.40;99.90
29803;DHT22;16702;50.898;4.662;2023-02-28T01:36:28;3.40;99.90
29803;DHT22;16702;50.898;4.662;2023-02-28T01:39:01;3.40;99.90
29803;DHT22;16702;50.898;4.662;2023-02-28T01:41:34;3.30;99.90
29803;DHT22;16702;50.898;4.662;2023-02-28T01:44:06;3.30;99.90
29803;DHT22;16702;50.898;4.662;2023-02-28T01:46:39;3.30;99.90
29803;DHT22;16702;50.898;4.662;2023-02-28T01:49:14;3.30;99.90
29803;DHT22;16702;50.898;4.662;2023-02-28T01:51:49;3.30;99.90
29803;DHT22;16702;50.898;4.662;2023-02-28T01:54:28;3.20;99.90
29803;DHT22;16702;50.898;4.662;2023-02-28T01:57:03;3.20;99.90
29803;DHT22;16702;50.898;4.662;2023-02-28T01:59:36;3.20;99.90
29803;DHT22;16702;50.898;4.662;2023-02-28T02:02:08;3.20;99.90
29803;DHT22;16702;50.898;4.662;2023-02-28T02:04:44;3.20;99.90
29803;DHT22;16702;50.898;4.662;2023-02-28T02:07:16;3.20;99.90
29803;DHT22;16702;50.898;4.662;2023-02-28T02:09:49;3.30;99.90
29803;DHT22;16702;50.898;4.662;2023-02-28T02:12:27;3.20;99.90
29803;DHT22;16702;50.898;4.662;2023-02-28T02:15:05;3.20;99.90
29803;DHT22;16702;50.898;4.662;2023-02-28T02:17:39;3.20;99.90
29803;DHT22;16702;50.898;4.662;2023-02-28T02:20:38;3.00;99.90
29803;DHT22;16702;50.898;4.662;2023-02-28T02:26:52;3.00;99.90
29803;DHT22;16702;50.898;4.662;2023-02-28T02:29:39;3.00;99.90
29803;DHT22;16702;50.898;4.662;2023-02-28T02:35:15;2.90;99.90
29803;DHT22;16702;50.898;4.662;2023-02-28T02:37:47;2.90;99.90
29803;DHT22;16702;50.898;4.662;2023-02-28T02:40:21;2.90;99.90
29803;DHT22;16702;50.898;4.662;2023-02-28T02:42:56;2.90;99.90
29803;DHT22;16702;50.898;4.662;2023-02-28T02:45:33;2.90;99.90
29803;DHT22;16702;50.898;4.662;2023-02-28T02:48:10;2.80;99.90
29803;DHT22;16702;50.898;4.662;2023-02-28T02:50:48;2.90;99.90
29803;DHT22;16702;50.898;4.662;2023-02-28T02:53:24;2.80;99.90
29803;DHT22;16702;50.898;4.662;2023-02-28T02:55:55;2.80;99.90
29803;DHT22;16702;50.898;4.662;2023-02-28T02:58:32;2.70;99.90
29803;DHT22;16702;50.898;4.662;2023-02-28T03:01:12;2.70;99.90
29803;DHT22;16702;50.898;4.662;2023-02-28T03:03:46;2.80;99.90
29803;DHT22;16702;50.898;4.662;2023-02-28T03:06:19;2.70;99.90
29803;DHT22;16702;50.898;4.662;2023-02-28T03:08:49;2.70;99.90
29803;DHT22;16702;50.898;4.662;2023-02-28T03:11:22;2.70;99.90
29803;DHT22;16702;50.898;4.662;2023-02-28T03:14:04;2.80;99.90
29803;DHT22;16702;50.898;4.662;2023-02-28T03:19:43;2.60;99.90
29803;DHT22;16702;50.898;4.662;2023-02-28T03:22:28;2.60;99.90
29803;DHT22;16702;50.898;4.662;2023-02-28T03:25:06;2.60;99.90
29803;DHT22;16702;50.898;4.662;2023-02-28T03:27:41;2.60;99.90
29803;DHT22;16702;50.898;4.662;2023-02-28T03:30:15;2.70;99.90
29803;DHT22;16702;50.898;4.662;2023-02-28T03:32:51;2.60;99.90
29803;DHT22;16702;50.898;4.662;2023-02-28T03:35:24;2.50;99.90
29803;DHT22;16702;50.898;4.662;2023-02-28T03:38:01;2.50;99.90
29803;DHT22;16702;50.898;4.662;2023-02-28T03:40:36;2.50;99.90
29803;DHT22;16702;50.898;4.662;2023-02-28T03:43:12;2.50;99.90
29803;DHT22;16702;50.898;4.662;2023-02-28T03:45:45;2.50;99.90
29803;DHT22;16702;50.898;4.662;2023-02-28T03:48:20;2.40;99.90
29803;DHT22;16702;50.898;4.662;2023-02-28T03:50:54;2.40;99.90
29803;DHT22;16702;50.898;4.662;2023-02-28T03:53:30;2.50;99.90
29803;DHT22;16702;50.898;4.662;2023-02-28T03:56:07;2.40;99.90
29803;DHT22;16702;50.898;4.662;2023-02-28T03:58:46;2.30;99.90
29803;DHT22;16702;50.898;4.662;2023-02-28T04:01:21;2.30;99.90
29803;DHT22;16702;50.898;4.662;2023-02-28T04:03:54;2.40;99.90
29803;DHT22;16702;50.898;4.662;2023-02-28T04:06:25;2.30;99.90
29803;DHT22;16702;50.898;4.662;2023-02-28T04:08:58;2.30;99.90
29803;DHT22;16702;50.898;4.662;2023-02-28T04:11:33;2.50;99.90
29803;DHT22;16702;50.898;4.662;2023-02-28T04:14:04;2.20;99.90
29803;DHT22;16702;50.898;4.662;2023-02-28T04:16:37;2.30;99.90
29803;DHT22;16702;50.898;4.662;2023-02-28T04:19:10;2.30;99.90
29803;DHT22;16702;50.898;4.662;2023-02-28T04:21:42;2.30;99.90
29803;DHT22;16702;50.898;4.662;2023-02-28T04:24:17;2.30;99.90
29803;DHT22;16702;50.898;4.662;2023-02-28T04:26:49;2.30;99.90
29803;DHT22;16702;50.898;4.662;2023-02-28T04:29:21;2.30;99.90
29803;DHT22;16702;50.898;4.662;2023-02-28T04:31:52;2.40;99.90
29803;DHT22;16702;50.898;4.662;2023-02-28T04:34:25;2.40;99.90
29803;DHT22;16702;50.898;4.662;2023-02-28T04:36:56;2.30;99.90
29803;DHT22;16702;50.898;4.662;2023-02-28T04:39:45;2.30;99.90
29803;DHT22;16702;50.898;4.662;2023-02-28T04:42:16;2.40;99.90
29803;DHT22;16702;50.898;4.662;2023-02-28T04:44:46;2.30;99.90
29803;DHT22;16702;50.898;4.662;2023-02-28T04:47:17;2.40;99.90
29803;DHT22;16702;50.898;4.662;2023-02-28T04:49:47;2.20;99.90
29803;DHT22;16702;50.898;4.662;2023-02-28T04:52:17;2.30;99.90
29803;DHT22;16702;50.898;4.662;2023-02-28T04:54:50;2.20;99.90
29803;DHT22;16702;50.898;4.662;2023-02-28T04:57:21;2.30;99.90
29803;DHT22;16702;50.898;4.662;2023-02-28T04:59:51;2.20;99.90
29803;DHT22;16702;50.898;4.662;2023-02-28T05:02:21;2.30;99.90
29803;DHT22;16702;50.898;4.662;2023-02-28T05:04:52;2.20;99.90
29803;DHT22;16702;50.898;4.662;2023-02-28T05:07:25;2.20;99.90
29803;DHT22;16702;50.898;4.662;2023-02-28T05:09:58;2.10;99.90
29803;DHT22;16702;50.898;4.662;2023-02-28T05:12:28;2.20;99.90
29803;DHT22;16702;50.898;4.662;2023-02-28T05:14:59;2.20;99.90
29803;DHT22;16702;50.898;4.662;2023-02-28T05:17:29;2.10;99.90
29803;DHT22;16702;50.898;4.662;2023-02-28T05:20:00;2.10;99.90
29803;DHT22;16702;50.898;4.662;2023-02-28T05:22:43;2.10;99.90
29803;DHT22;16702;50.898;4.662;2023-02-28T05:25:18;2.10;99.90
29803;DHT22;16702;50.898;4.662;2023-02-28T05:27:49;2.10;99.90
29803;DHT22;16702;50.898;4.662;2023-02-28T05:30:20;2.20;99.90
29803;DHT22;16702;50.898;4.662;2023-02-28T05:32:51;2.10;99.90
29803;DHT22;16702;50.898;4.662;2023-02-28T05:35:22;2.20;99.90
29803;DHT22;16702;50.898;4.662;2023-02-28T05:37:52;2.20;99.90
29803;DHT22;16702;50.898;4.662;2023-02-28T05:40:25;2.20;99.90
29803;DHT22;16702;50.898;4.662;2023-02-28T05:42:56;2.20;99.90
29803;DHT22;16702;50.898;4.662;2023-02-28T05:45:26;2.20;99.90
29803;DHT22;16702;50.898;4.662;2023-02-28T05:47:56;2.20;99.90
29803;DHT22;16702;50.898;4.662;2023-02-28T05:50:27;2.20;99.90
29803;DHT22;16702;50.898;4.662;2023-02-28T05:52:57;2.30;99.90
29803;DHT22;16702;50.898;4.662;2023-02-28T05:55:30;2.30;99.90
29803;DHT22;16702;50.898;4.662;2023-02-28T05:58:03;2.30;99.90
29803;DHT22;16702;50.898;4.662;2023-02-28T06:00:33;2.20;99.90
29803;DHT22;16702;50.898;4.662;2023-02-28T06:03:03;2.30;99.90
29803;DHT22;16702;50.898;4.662;2023-02-28T06:05:34;2.40;99.90
29803;DHT22;16702;50.898;4.662;2023-02-28T06:08:05;2.20;99.90
29803;DHT22;16702;50.898;4.662;2023-02-28T06:10:38;2.20;99.90
29803;DHT22;16702;50.898;4.662;2023-02-28T06:13:09;2.20;99.90
29803;DHT22;16702;50.898;4.662;2023-02-28T06:15:40;2.40;99.90
29803;DHT22;16702;50.898;4.662;2023-02-28T06:18:10;2.40;99.90
29803;DHT22;16702;50.898;4.662;2023-02-28T06:20:41;2.40;99.90
29803;DHT22;16702;50.898;4.662;2023-02-28T06:23:11;2.20;99.90
29803;DHT22;16702;50.898;4.662;2023-02-28T06:25:47;2.20;99.90
29803;DHT22;16702;50.898;4.662;2023-02-28T06:28:17;2.30;99.90
29803;DHT22;16702;50.898;4.662;2023-02-28T06:30:48;2.30;99.90
29803;DHT22;16702;50.898;4.662;2023-02-28T06:33:18;2.20;99.90
29803;DHT22;16702;50.898;4.662;2023-02-28T06:35:50;2.30;99.90
29803;DHT22;16702;50.898;4.662;2023-02-28T06:38:20;2.20;99.90
29803;DHT22;16702;50.898;4.662;2023-02-28T06:40:57;2.30;99.90
29803;DHT22;16702;50.898;4.662;2023-02-28T06:43:28;2.20;99.90
29803;DHT22;16702;50.898;4.662;2023-02-28T06:46:01;2.30;99.90
29803;DHT22;16702;50.898;4.662;2023-02-28T06:48:31;2.20;99.90
29803;DHT22;16702;50.898;4.662;2023-02-28T06:51:03;2.20;99.90
29803;DHT22;16702;50.898;4.662;2023-02-28T06:53:34;2.20;99.90
29803;DHT22;16702;50.898;4.662;2023-02-28T06:56:09;2.20;99.90
29803;DHT22;16702;50.898;4.662;2023-02-28T06:58:40;2.20;99.90
29803;DHT22;16702;50.898;4.662;2023-02-28T07:01:11;2.20;99.90
29803;DHT22;16702;50.898;4.662;2023-02-28T07:03:43;2.20;99.90
29803;DHT22;16702;50.898;4.662;2023-02-28T07:06:13;2.20;99.90
29803;DHT22;16702;50.898;4.662;2023-02-28T07:08:45;2.20;99.90
29803;DHT22;16702;50.898;4.662;2023-02-28T07:11:18;2.30;99.90
29803;DHT22;16702;50.898;4.662;2023-02-28T07:13:49;2.20;99.90
29803;DHT22;16702;50.898;4.662;2023-02-28T07:16:20;2.20;99.90
29803;DHT22;16702;50.898;4.662;2023-02-28T07:18:53;2.20;99.90
29803;DHT22;16702;50.898;4.662;2023-02-28T07:21:23;2.30;99.90
29803;DHT22;16702;50.898;4.662;2023-02-28T07:23:55;2.20;99.90
29803;DHT22;16702;50.898;4.662;2023-02-28T07:26:28;2.30;99.90
29803;DHT22;16702;50.898;4.662;2023-02-28T07:29:01;2.20;99.90
29803;DHT22;16702;50.898;4.662;2023-02-28T07:31:32;2.20;99.90
29803;DHT22;16702;50.898;4.662;2023-02-28T07:34:02;2.30;99.90
29803;DHT22;16702;50.898;4.662;2023-02-28T07:36:33;2.20;99.90
29803;DHT22;16702;50.898;4.662;2023-02-28T07:39:03;2.30;99.90
29803;DHT22;16702;50.898;4.662;2023-02-28T07:41:39;2.20;99.90
29803;DHT22;16702;50.898;4.662;2023-02-28T07:44:11;2.30;99.90
29803;DHT22;16702;50.898;4.662;2023-02-28T07:46:41;2.30;99.90
29803;DHT22;16702;50.898;4.662;2023-02-28T07:49:12;2.20;99.90
29803;DHT22;16702;50.898;4.662;2023-02-28T07:51:42;2.30;99.90
29803;DHT22;16702;50.898;4.662;2023-02-28T07:54:12;2.30;99.90
29803;DHT22;16702;50.898;4.662;2023-02-28T07:56:45;2.40;99.90
29803;DHT22;16702;50.898;4.662;2023-02-28T07:59:16;2.30;99.90
29803;DHT22;16702;50.898;4.662;2023-02-28T08:01:46;2.30;99.90
29803;DHT22;16702;50.898;4.662;2023-02-28T08:04:17;2.30;99.90
29803;DHT22;16702;50.898;4.662;2023-02-28T08:06:48;2.40;99.90
29803;DHT22;16702;50.898;4.662;2023-02-28T08:09:19;2.40;99.90
29803;DHT22;16702;50.898;4.662;2023-02-28T08:11:52;2.30;99.90
29803;DHT22;16702;50.898;4.662;2023-02-28T08:14:22;2.40;99.90
29803;DHT22;16702;50.898;4.662;2023-02-28T08:16:53;2.50;99.90
29803;DHT22;16702;50.898;4.662;2023-02-28T08:19:23;2.50;99.90
29803;DHT22;16702;50.898;4.662;2023-02-28T08:21:54;2.40;99.90
29803;DHT22;16702;50.898;4.662;2023-02-28T08:24:24;2.40;99.90
29803;DHT22;16702;50.898;4.662;2023-02-28T08:26:57;2.50;99.90
29803;DHT22;16702;50.898;4.662;2023-02-28T08:29:28;2.50;99.90
29803;DHT22;16702;50.898;4.662;2023-02-28T08:31:58;2.70;99.90
29803;DHT22;16702;50.898;4.662;2023-02-28T08:34:29;2.60;99.90
29803;DHT22;16702;50.898;4.662;2023-02-28T08:36:59;2.60;99.90
29803;DHT22;16702;50.898;4.662;2023-02-28T08:39:30;2.70;99.90
29803;DHT22;16702;50.898;4.662;2023-02-28T08:42:03;2.70;99.90
29803;DHT22;16702;50.898;4.662;2023-02-28T08:44:34;2.70;99.90
29803;DHT22;16702;50.898;4.662;2023-02-28T08:47:05;2.70;99.90
29803;DHT22;16702;50.898;4.662;2023-02-28T08:49:36;3.00;99.90
29803;DHT22;16702;50.898;4.662;2023-02-28T08:52:06;2.90;99.90
29803;DHT22;16702;50.898;4.662;2023-02-28T08:54:36;2.90;99.90
29803;DHT22;16702;50.898;4.662;2023-02-28T08:57:09;2.80;99.90
29803;DHT22;16702;50.898;4.662;2023-02-28T08:59:40;3.00;99.90
29803;DHT22;16702;50.898;4.662;2023-02-28T09:02:12;2.80;99.90
29803;DHT22;16702;50.898;4.662;2023-02-28T09:04:43;2.90;99.90
29803;DHT22;16702;50.898;4.662;2023-02-28T09:07:14;3.00;99.90
29803;DHT22;16702;50.898;4.662;2023-02-28T09:09:44;2.90;99.90
29803;DHT22;16702;50.898;4.662;2023-02-28T09:12:27;3.10;99.90
29803;DHT22;16702;50.898;4.662;2023-02-28T09:15:04;3.00;99.90
29803;DHT22;16702;50.898;4.662;2023-02-28T09:17:34;3.00;99.90
29803;DHT22;16702;50.898;4.662;2023-02-28T09:20:06;3.00;99.90
29803;DHT22;16702;50.898;4.662;2023-02-28T09:22:37;3.10;99.90
29803;DHT22;16702;50.898;4.662;2023-02-28T09:25:07;3.20;99.90
29803;DHT22;16702;50.898;4.662;2023-02-28T09:27:41;3.10;99.90
29803;DHT22;16702;50.898;4.662;2023-02-28T09:30:13;3.20;99.90
29803;DHT22;16702;50.898;4.662;2023-02-28T09:32:43;3.30;99.90
29803;DHT22;16702;50.898;4.662;2023-02-28T09:35:19;3.30;99.90
29803;DHT22;16702;50.898;4.662;2023-02-28T09:37:51;3.50;99.90
29803;DHT22;16702;50.898;4.662;2023-02-28T09:40:24;3.40;99.90
29803;DHT22;16702;50.898;4.662;2023-02-28T09:42:58;3.50;99.90
29803;DHT22;16702;50.898;4.662;2023-02-28T09:45:33;3.50;99.90
29803;DHT22;16702;50.898;4.662;2023-02-28T09:48:11;3.60;99.90
29803;DHT22;16702;50.898;4.662;2023-02-28T09:50:46;3.60;99.90
29803;DHT22;16702;50.898;4.662;2023-02-28T09:53:22;3.60;99.90
29803;DHT22;16702;50.898;4.662;2023-02-28T09:55:58;3.60;99.90
29803;DHT22;16702;50.898;4.662;2023-02-28T09:58:36;3.70;99.90
29803;DHT22;16702;50.898;4.662;2023-02-28T10:01:17;3.70;99.90
29803;DHT22;16702;50.898;4.662;2023-02-28T10:03:56;3.90;99.90
29803;DHT22;16702;50.898;4.662;2023-02-28T10:06:29;3.90;99.90
29803;DHT22;16702;50.898;4.662;2023-02-28T10:09:02;4.00;99.90
29803;DHT22;16702;50.898;4.662;2023-02-28T10:11:35;4.00;99.90
29803;DHT22;16702;50.898;4.662;2023-02-28T10:14:13;4.00;99.90
29803;DHT22;16702;50.898;4.662;2023-02-28T10:16:47;4.00;99.90
29803;DHT22;16702;50.898;4.662;2023-02-28T10:19:22;4.10;99.90
29803;DHT22;16702;50.898;4.662;2023-02-28T10:21:57;4.20;99.90
29803;DHT22;16702;50.898;4.662;2023-02-28T10:24:33;4.20;99.90
29803;DHT22;16702;50.898;4.662;2023-02-28T10:27:13;4.20;99.90
29803;DHT22;16702;50.898;4.662;2023-02-28T10:29:49;4.30;99.90
29803;DHT22;16702;50.898;4.662;2023-02-28T10:32:22;4.40;99.90
29803;DHT22;16702;50.898;4.662;2023-02-28T10:34:57;4.50;99.90
29803;DHT22;16702;50.898;4.662;2023-02-28T10:37:29;4.60;99.90
29803;DHT22;16702;50.898;4.662;2023-02-28T10:40:07;4.70;99.90
29803;DHT22;16702;50.898;4.662;2023-02-28T10:42:39;4.70;99.90
29803;DHT22;16702;50.898;4.662;2023-02-28T10:45:16;4.60;99.90
29803;DHT22;16702;50.898;4.662;2023-02-28T10:47:53;4.70;99.90
29803;DHT22;16702;50.898;4.662;2023-02-28T10:50:29;4.70;99.90
29803;DHT22;16702;50.898;4.662;2023-02-28T10:53:14;4.70;99.90
29803;DHT22;16702;50.898;4.662;2023-02-28T10:55:56;4.80;99.90
29803;DHT22;16702;50.898;4.662;2023-02-28T10:58:29;5.00;99.90
29803;DHT22;16702;50.898;4.662;2023-02-28T11:01:03;5.00;99.90
29803;DHT22;16702;50.898;4.662;2023-02-28T11:03:34;5.10;99.90
29803;DHT22;16702;50.898;4.662;2023-02-28T11:06:07;5.10;99.90
29803;DHT22;16702;50.898;4.662;2023-02-28T11:08:45;5.20;99.90
29803;DHT22;16702;50.898;4.662;2023-02-28T11:11:24;5.30;99.90
29803;DHT22;16702;50.898;4.662;2023-02-28T11:13:57;5.30;99.90
29803;DHT22;16702;50.898;4.662;2023-02-28T11:16:35;5.20;99.90
29803;DHT22;16702;50.898;4.662;2023-02-28T11:19:17;5.30;99.90
29803;DHT22;16702;50.898;4.662;2023-02-28T11:21:54;5.30;99.90
29803;DHT22;16702;50.898;4.662;2023-02-28T11:24:27;5.50;99.90
29803;DHT22;16702;50.898;4.662;2023-02-28T11:26:58;5.60;99.90
29803;DHT22;16702;50.898;4.662;2023-02-28T11:29:30;5.40;99.90
29803;DHT22;16702;50.898;4.662;2023-02-28T11:32:12;5.40;99.90
29803;DHT22;16702;50.898;4.662;2023-02-28T11:34:43;5.60;99.90
29803;DHT22;16702;50.898;4.662;2023-02-28T11:37:16;5.70;99.90
29803;DHT22;16702;50.898;4.662;2023-02-28T11:39:47;5.90;99.90
29803;DHT22;16702;50.898;4.662;2023-02-28T11:42:37;5.90;99.90
29803;DHT22;16702;50.898;4.662;2023-02-28T11:45:18;6.00;99.90
29803;DHT22;16702;50.898;4.662;2023-02-28T11:48:00;5.90;99.90
29803;DHT22;16702;50.898;4.662;2023-02-28T11:50:43;5.80;99.90
29803;DHT22;16702;50.898;4.662;2023-02-28T11:53:22;6.00;99.90
29803;DHT22;16702;50.898;4.662;2023-02-28T11:56:03;6.10;99.90
29803;DHT22;16702;50.898;4.662;2023-02-28T11:58:47;6.10;99.90
29803;DHT22;16702;50.898;4.662;2023-02-28T12:01:32;6.10;99.90
29803;DHT22;16702;50.898;4.662;2023-02-28T12:04:17;6.20;99.90
29803;DHT22;16702;50.898;4.662;2023-02-28T12:06:56;6.20;99.90
29803;DHT22;16702;50.898;4.662;2023-02-28T12:09:44;6.30;99.90
29803;DHT22;16702;50.898;4.662;2023-02-28T12:12:23;6.40;99.90
29803;DHT22;16702;50.898;4.662;2023-02-28T12:15:17;6.40;99.90
29803;DHT22;16702;50.898;4.662;2023-02-28T12:20:51;6.60;99.90
29803;DHT22;16702;50.898;4.662;2023-02-28T12:23:42;6.80;99.90
29803;DHT22;16702;50.898;4.662;2023-02-28T12:26:20;6.60;99.90
29803;DHT22;16702;50.898;4.662;2023-02-28T12:28:57;6.80;99.90
29803;DHT22;16702;50.898;4.662;2023-02-28T12:31:30;6.90;99.90
29803;DHT22;16702;50.898;4.662;2023-02-28T12:34:07;6.90;99.90
29803;DHT22;16702;50.898;4.662;2023-02-28T12:36:44;7.00;99.90
29803;DHT22;16702;50.898;4.662;2023-02-28T12:39:18;7.10;99.90
29803;DHT22;16702;50.898;4.662;2023-02-28T12:41:54;7.10;99.90
29803;DHT22;16702;50.898;4.662;2023-02-28T12:44:30;7.00;99.60
29803;DHT22;16702;50.898;4.662;2023-02-28T12:47:05;7.00;99.90
29803;DHT22;16702;50.898;4.662;2023-02-28T12:49:44;7.10;99.90
29803;DHT22;16702;50.898;4.662;2023-02-28T12:52:23;7.00;99.90
29803;DHT22;16702;50.898;4.662;2023-02-28T12:55:01;7.10;99.90
29803;DHT22;16702;50.898;4.662;2023-02-28T12:57:38;7.20;99.70
29803;DHT22;16702;50.898;4.662;2023-02-28T13:00:14;7.30;99.00
29803;DHT22;16702;50.898;4.662;2023-02-28T13:03:11;7.40;98.80
29803;DHT22;16702;50.898;4.662;2023-02-28T13:06:13;7.30;98.00
29803;DHT22;16702;50.898;4.662;2023-02-28T13:09:06;7.30;99.30
29803;DHT22;16702;50.898;4.662;2023-02-28T13:11:41;7.30;98.70
29803;DHT22;16702;50.898;4.662;2023-02-28T13:14:30;7.20;98.70
29803;DHT22;16702;50.898;4.662;2023-02-28T13:17:11;7.20;98.40
29803;DHT22;16702;50.898;4.662;2023-02-28T13:19:44;7.40;98.50
29803;DHT22;16702;50.898;4.662;2023-02-28T13:22:20;7.60;99.20
29803;DHT22;16702;50.898;4.662;2023-02-28T13:31:23;7.60;97.90
29803;DHT22;16702;50.898;4.662;2023-02-28T13:34:14;7.70;98.10
29803;DHT22;16702;50.898;4.662;2023-02-28T13:36:44;7.60;97.70
29803;DHT22;16702;50.898;4.662;2023-02-28T13:42:33;7.80;97.70
29803;DHT22;16702;50.898;4.662;2023-02-28T13:45:24;7.70;97.30
29803;DHT22;16702;50.898;4.662;2023-02-28T13:47:59;7.80;97.90
29803;DHT22;16702;50.898;4.662;2023-02-28T13:50:33;7.80;96.60
29803;DHT22;16702;50.898;4.662;2023-02-28T13:53:33;7.80;97.50
29803;DHT22;16702;50.898;4.662;2023-02-28T13:56:31;7.70;97.10
29803;DHT22;16702;50.898;4.662;2023-02-28T13:59:16;7.80;98.40
29803;DHT22;16702;50.898;4.662;2023-02-28T14:01:58;7.80;96.80
29803;DHT22;16702;50.898;4.662;2023-02-28T14:04:57;7.70;97.10
29803;DHT22;16702;50.898;4.662;2023-02-28T14:07:32;7.90;97.30
29803;DHT22;16702;50.898;4.662;2023-02-28T14:10:05;7.90;97.80
29803;DHT22;16702;50.898;4.662;2023-02-28T14:12:58;7.90;96.80
29803;DHT22;16702;50.898;4.662;2023-02-28T14:15:46;7.90;97.50
29803;DHT22;16702;50.898;4.662;2023-02-28T14:18:27;7.80;97.50
29803;DHT22;16702;50.898;4.662;2023-02-28T14:21:09;7.80;97.10
29803;DHT22;16702;50.898;4.662;2023-02-28T14:23:57;7.90;97.30
29803;DHT22;16702;50.898;4.662;2023-02-28T14:26:38;7.80;97.80
29803;DHT22;16702;50.898;4.662;2023-02-28T14:29:43;7.80;96.70
29803;DHT22;16702;50.898;4.662;2023-02-28T14:32:22;7.70;97.00
29803;DHT22;16702;50.898;4.662;2023-02-28T14:35:05;7.90;96.90
29803;DHT22;16702;50.898;4.662;2023-02-28T14:37:45;7.90;97.40
29803;DHT22;16702;50.898;4.662;2023-02-28T14:40:17;7.80;97.00
29803;DHT22;16702;50.898;4.662;2023-02-28T14:42:56;7.80;98.10
29803;DHT22;16702;50.898;4.662;2023-02-28T14:45:29;7.70;97.80
29803;DHT22;16702;50.898;4.662;2023-02-28T14:48:01;7.90;98.10
29803;DHT22;16702;50.898;4.662;2023-02-28T14:50:36;7.70;96.90
29803;DHT22;16702;50.898;4.662;2023-02-28T14:53:17;7.80;97.50
29803;DHT22;16702;50.898;4.662;2023-02-28T14:55:48;7.90;98.20
29803;DHT22;16702;50.898;4.662;2023-02-28T14:58:23;7.90;97.80
29803;DHT22;16702;50.898;4.662;2023-02-28T15:00:56;7.90;97.50
29803;DHT22;16702;50.898;4.662;2023-02-28T15:03:32;7.90;98.10
29803;DHT22;16702;50.898;4.662;2023-02-28T15:06:04;7.90;97.50
29803;DHT22;16702;50.898;4.662;2023-02-28T15:08:38;7.90;97.80
29803;DHT22;16702;50.898;4.662;2023-02-28T15:11:12;7.80;98.50
29803;DHT22;16702;50.898;4.662;2023-02-28T15:13:46;7.90;98.50
29803;DHT22;16702;50.898;4.662;2023-02-28T15:16:19;7.70;97.90
29803;DHT22;16702;50.898;4.662;2023-02-28T15:18:52;7.70;98.90
29803;DHT22;16702;50.898;4.662;2023-02-28T15:21:25;7.70;97.60
29803;DHT22;16702;50.898;4.662;2023-02-28T15:24:00;7.70;97.90
29803;DHT22;16702;50.898;4.662;2023-02-28T15:26:35;7.80;98.30
29803;DHT22;16702;50.898;4.662;2023-02-28T15:29:12;7.80;98.20
29803;DHT22;16702;50.898;4.662;2023-02-28T15:31:45;7.70;97.40
29803;DHT22;16702;50.898;4.662;2023-02-28T15:34:30;7.70;98.40
29803;DHT22;16702;50.898;4.662;2023-02-28T15:37:28;7.80;97.30
29803;DHT22;16702;50.898;4.662;2023-02-28T15:40:10;7.80;97.60
29803;DHT22;16702;50.898;4.662;2023-02-28T15:42:42;7.70;98.90
29803;DHT22;16702;50.898;4.662;2023-02-28T15:45:28;7.70;99.00
29803;DHT22;16702;50.898;4.662;2023-02-28T15:47:58;7.70;98.80
29803;DHT22;16702;50.898;4.662;2023-02-28T15:50:40;7.60;98.30
29803;DHT22;16702;50.898;4.662;2023-02-28T15:53:14;7.60;98.40
29803;DHT22;16702;50.898;4.662;2023-02-28T15:55:53;7.50;97.60
29803;DHT22;16702;50.898;4.662;2023-02-28T15:58:24;7.40;98.20
29803;DHT22;16702;50.898;4.662;2023-02-28T16:01:07;7.40;98.40
29803;DHT22;16702;50.898;4.662;2023-02-28T16:03:41;7.40;98.90
29803;DHT22;16702;50.898;4.662;2023-02-28T16:06:40;7.50;98.90
29803;DHT22;16702;50.898;4.662;2023-02-28T16:09:13;7.50;99.30
29803;DHT22;16702;50.898;4.662;2023-02-28T16:11:48;7.40;99.50
29803;DHT22;16702;50.898;4.662;2023-02-28T16:14:20;7.40;98.90
29803;DHT22;16702;50.898;4.662;2023-02-28T16:16:52;7.30;99.20
29803;DHT22;16702;50.898;4.662;2023-02-28T16:19:23;7.30;99.30
29803;DHT22;16702;50.898;4.662;2023-02-28T16:21:53;7.30;99.60
29803;DHT22;16702;50.898;4.662;2023-02-28T16:24:24;7.30;99.60
29803;DHT22;16702;50.898;4.662;2023-02-28T16:26:57;7.20;99.10
29803;DHT22;16702;50.898;4.662;2023-02-28T16:29:32;7.20;99.70
29803;DHT22;16702;50.898;4.662;2023-02-28T16:32:04;7.40;99.80
29803;DHT22;16702;50.898;4.662;2023-02-28T16:34:35;7.10;99.60
29803;DHT22;16702;50.898;4.662;2023-02-28T16:37:11;7.10;99.40
29803;DHT22;16702;50.898;4.662;2023-02-28T16:39:42;7.10;99.60
29803;DHT22;16702;50.898;4.662;2023-02-28T16:42:23;7.10;99.20
29803;DHT22;16702;50.898;4.662;2023-02-28T16:44:55;7.10;99.40
29803;DHT22;16702;50.898;4.662;2023-02-28T16:47:26;7.10;99.60
29803;DHT22;16702;50.898;4.662;2023-02-28T16:49:58;7.00;99.90
29803;DHT22;16702;50.898;4.662;2023-02-28T16:52:29;7.00;99.10
29803;DHT22;16702;50.898;4.662;2023-02-28T16:54:59;6.90;99.20